Time;durP1;ratioP1;P1;durP2;ratioP2;P2;SDS_P1;SDS_P2;PMS_P1;PMS_P2;Temp;Humidity;BMP_temperature;BMP_pressure;BME280_temperature;BME280_humidity;BME280_pressure;Samples;Min_cycle;Max_cycle;Signal;HPM_P1;HPM_P2
2022/11/13 00:02:41;;;;;;;75.72;38.60;;;6.90;99.90;;;;;;6205635;23;20059;-85
2022/11/13 00:05:25;;;;;;;82.72;38.53;;;6.70;99.90;;;;;;6197249;23;20023;-85
2022/11/13 00:08:10;;;;;;;75.72;38.28;;;6.70;99.90;;;;;;6196970;23;20024;-86
2022/11/13 00:11:04;;;;;;;85.47;40.72;;;6.60;99.90;;;;;;6196503;23;20040;-86
2022/11/13 00:13:49;;;;;;;76.30;38.72;;;6.60;99.90;;;;;;6197262;23;20067;-86
2022/11/13 00:16:33;;;;;;;78.22;39.38;;;6.60;99.90;;;;;;6204856;23;20028;-87
2022/11/13 00:19:18;;;;;;;80.45;40.35;;;6.50;99.90;;;;;;6204640;23;20048;-87
2022/11/13 00:22:03;;;;;;;77.03;38.58;;;6.50;99.90;;;;;;6205800;23;20024;-87
2022/11/13 00:24:47;;;;;;;78.03;38.95;;;6.50;99.90;;;;;;6204325;23;20065;-86
2022/11/13 00:27:35;;;;;;;75.72;38.28;;;6.40;99.90;;;;;;6198769;23;20079;-86
2022/11/13 00:30:19;;;;;;;77.50;36.78;;;6.40;99.90;;;;;;6195790;23;20020;-86
2022/11/13 00:33:05;;;;;;;64.60;36.20;;;6.40;99.90;;;;;;6194952;23;20028;-87
2022/11/13 00:35:49;;;;;;;74.90;37.70;;;6.40;99.90;;;;;;6196859;23;20075;-85
2022/11/13 00:38:34;;;;;;;71.03;37.60;;;6.30;99.90;;;;;;6196186;23;20035;-88
2022/11/13 00:41:23;;;;;;;65.90;36.00;;;6.30;99.90;;;;;;6195393;23;20020;-87
2022/11/13 00:44:07;;;;;;;73.30;36.85;;;6.30;99.90;;;;;;6194374;23;20044;-88
2022/11/13 00:46:51;;;;;;;74.70;38.00;;;6.20;99.90;;;;;;6200749;23;20036;-86
2022/11/13 00:49:36;;;;;;;70.25;36.58;;;6.20;99.90;;;;;;6205802;23;20201;-87
2022/11/13 00:52:20;;;;;;;69.80;36.70;;;6.20;99.90;;;;;;6205452;23;20064;-86
2022/11/13 00:55:06;;;;;;;70.05;35.00;;;6.10;99.90;;;;;;6204398;23;20047;-86
2022/11/13 00:57:50;;;;;;;81.03;36.50;;;6.10;99.90;;;;;;6199905;23;20044;-87
2022/11/13 01:00:34;;;;;;;83.57;36.97;;;6.10;99.90;;;;;;6198030;23;20077;-87
2022/11/13 01:03:19;;;;;;;90.90;40.95;;;6.20;99.90;;;;;;6197486;23;20020;-87
2022/11/13 01:06:12;;;;;;;101.72;42.38;;;6.20;99.90;;;;;;6198260;23;20061;-87
2022/11/13 01:09:00;;;;;;;107.18;44.85;;;6.20;99.90;;;;;;6197495;23;20015;-86
2022/11/13 01:11:45;;;;;;;144.13;47.70;;;6.20;99.90;;;;;;6229878;22;20016;-84
2022/11/13 01:14:30;;;;;;;162.75;50.05;;;6.30;99.90;;;;;;6212580;23;20012;-83
2022/11/13 01:17:14;;;;;;;138.23;49.90;;;6.30;99.90;;;;;;6233852;22;20057;-83
2022/11/13 01:19:59;;;;;;;148.32;52.28;;;6.30;99.90;;;;;;6211156;23;20036;-84
2022/11/13 01:22:43;;;;;;;152.48;51.97;;;6.30;99.90;;;;;;6213084;23;20047;-85
2022/11/13 01:25:29;;;;;;;152.25;53.95;;;6.30;99.90;;;;;;6200962;23;20020;-86
2022/11/13 01:28:13;;;;;;;170.40;53.53;;;6.30;99.90;;;;;;6207150;23;19999;-82
2022/11/13 01:30:57;;;;;;;162.85;50.47;;;6.30;99.90;;;;;;6214411;23;20028;-84
2022/11/13 01:33:44;;;;;;;187.45;51.00;;;6.30;99.90;;;;;;6214691;23;20004;-86
2022/11/13 01:36:29;;;;;;;160.32;49.38;;;6.30;99.90;;;;;;6214569;23;20035;-84
2022/11/13 01:39:13;;;;;;;143.77;49.45;;;6.30;99.90;;;;;;6214264;23;20037;-85
2022/11/13 01:41:59;;;;;;;176.60;48.58;;;6.30;99.90;;;;;;6213612;23;20064;-84
2022/11/13 01:44:50;;;;;;;168.13;48.22;;;6.20;99.90;;;;;;6240376;22;20027;-80
2022/11/13 01:47:35;;;;;;;175.02;46.58;;;6.30;99.90;;;;;;6236686;23;20061;-79
2022/11/13 01:50:19;;;;;;;136.20;45.35;;;6.30;99.90;;;;;;6255829;23;20015;-79
2022/11/13 01:53:04;;;;;;;129.45;44.33;;;6.30;99.90;;;;;;6260802;23;20105;-79
2022/11/13 01:55:49;;;;;;;;;;;6.20;99.90;;;;;;6254764;23;20105;-79
2022/11/13 01:58:34;;;;;;;154.57;44.30;;;6.20;99.90;;;;;;6254177;23;19910;-79
2022/11/13 02:01:18;;;;;;;;;;;6.10;99.90;;;;;;6256336;23;20023;-79
2022/11/13 02:04:03;;;;;;;120.30;41.97;;;6.00;99.90;;;;;;6259571;23;19918;-78
2022/11/13 02:06:56;;;;;;;147.00;41.72;;;6.00;99.90;;;;;;6261383;23;20039;-78
2022/11/13 02:09:47;;;;;;;100.95;41.35;;;6.00;99.90;;;;;;6263889;23;20031;-78
2022/11/13 02:12:36;;;;;;;118.28;41.30;;;5.90;99.90;;;;;;6255303;23;20076;-78
2022/11/13 02:15:23;;;;;;;125.90;40.67;;;5.90;99.90;;;;;;6253626;23;20023;-81
2022/11/13 02:18:10;;;;;;;167.20;43.10;;;5.90;99.90;;;;;;6230797;23;20065;-80
2022/11/13 02:21:00;;;;;;;111.85;41.75;;;5.80;99.90;;;;;;6254518;23;20040;-79
2022/11/13 02:24:07;;;;;;;129.95;42.72;;;5.90;99.90;;;;;;6256127;23;20023;-77
2022/11/13 02:26:54;;;;;;;146.98;40.25;;;5.80;99.90;;;;;;6254979;23;20015;-79
2022/11/13 02:29:38;;;;;;;162.40;40.38;;;5.80;99.90;;;;;;6233292;23;20067;-80
2022/11/13 02:32:22;;;;;;;90.75;39.47;;;5.70;99.90;;;;;;6254679;23;20019;-78
2022/11/13 02:35:07;;;;;;;122.07;40.87;;;5.60;99.90;;;;;;6264814;23;20043;-79
2022/11/13 02:37:53;;;;;;;103.78;40.35;;;5.70;99.90;;;;;;6264211;23;20035;-78
2022/11/13 02:40:38;;;;;;;87.43;38.67;;;5.70;99.90;;;;;;6260152;23;20031;-79
2022/11/13 02:43:22;;;;;;;;;;;5.80;99.90;;;;;;6268247;23;20072;-78
2022/11/13 02:46:07;;;;;;;90.25;38.63;;;5.80;99.90;;;;;;6261496;23;19922;-80
2022/11/13 02:48:51;;;;;;;78.50;36.83;;;5.90;99.90;;;;;;6263906;23;20023;-78
2022/11/13 02:51:36;;;;;;;88.68;38.95;;;5.90;99.90;;;;;;6258558;23;20039;-79
2022/11/13 02:54:20;;;;;;;82.45;36.78;;;5.90;99.90;;;;;;6232233;23;20019;-79
2022/11/13 02:57:05;;;;;;;83.50;37.80;;;6.00;99.90;;;;;;6256470;23;20019;-79
2022/11/13 02:59:53;;;;;;;80.32;37.22;;;6.10;99.90;;;;;;6238307;23;20031;-80
2022/11/13 03:02:38;;;;;;;79.28;36.05;;;6.10;99.90;;;;;;6259419;23;20037;-80
2022/11/13 03:05:22;;;;;;;79.47;34.90;;;6.20;99.90;;;;;;6247683;23;20019;-80
2022/11/13 03:08:07;;;;;;;84.18;36.28;;;6.30;99.90;;;;;;6245967;23;20015;-79
2022/11/13 03:10:53;;;;;;;80.95;36.20;;;6.30;99.90;;;;;;6248355;23;20084;-79
2022/11/13 03:13:38;;;;;;;81.55;36.65;;;6.30;99.90;;;;;;6230841;23;20400;-80
2022/11/13 03:16:22;;;;;;;;;;;6.30;99.90;;;;;;6254743;23;20118;-81
2022/11/13 03:19:07;;;;;;;95.47;38.15;;;6.30;99.90;;;;;;6251871;23;20400;-80
2022/11/13 03:21:52;;;;;;;84.50;37.08;;;6.40;99.90;;;;;;6252961;23;20468;-79
2022/11/13 03:24:36;;;;;;;94.70;39.05;;;6.40;99.90;;;;;;6253228;23;20080;-80
2022/11/13 03:27:21;;;;;;;105.68;39.78;;;6.40;99.90;;;;;;6255732;23;20035;-80
2022/11/13 03:30:06;;;;;;;111.53;40.72;;;6.40;99.90;;;;;;6253557;23;20019;-81
2022/11/13 03:32:57;;;;;;;94.88;38.95;;;6.40;99.90;;;;;;6254505;23;20019;-80
2022/11/13 03:35:42;;;;;;;125.75;43.90;;;6.50;99.90;;;;;;6252856;23;20022;-80
2022/11/13 03:38:26;;;;;;;118.35;44.53;;;6.50;99.90;;;;;;6255810;23;20042;-79
2022/11/13 03:41:13;;;;;;;124.88;46.85;;;6.50;99.90;;;;;;6230221;23;20019;-79
2022/11/13 03:43:58;;;;;;;139.65;45.75;;;6.40;99.90;;;;;;6232077;23;20072;-79
2022/11/13 03:46:42;;;;;;;124.07;49.53;;;6.40;99.90;;;;;;6255916;23;20058;-79
2022/11/13 03:49:27;;;;;;;142.55;48.65;;;6.50;99.90;;;;;;6253545;23;20622;-79
2022/11/13 03:52:11;;;;;;;119.40;48.53;;;6.50;99.90;;;;;;6261184;23;20023;-78
2022/11/13 03:54:56;;;;;;;112.13;46.00;;;6.60;99.90;;;;;;6257515;23;20043;-79
2022/11/13 03:57:40;;;;;;;138.38;49.08;;;6.60;99.90;;;;;;6260597;23;20046;-79
2022/11/13 04:00:24;;;;;;;131.63;49.33;;;6.60;99.90;;;;;;6259614;23;20059;-79
2022/11/13 04:03:09;;;;;;;145.63;49.38;;;6.70;99.90;;;;;;6256243;23;20059;-79
2022/11/13 04:05:54;;;;;;;118.95;49.20;;;6.70;99.90;;;;;;6259487;23;20018;-79
2022/11/13 04:08:40;;;;;;;126.03;49.97;;;6.70;99.90;;;;;;6258520;23;20019;-80
2022/11/13 04:11:24;;;;;;;183.52;52.78;;;6.70;99.90;;;;;;6258457;23;20035;-79
2022/11/13 04:14:08;;;;;;;136.00;51.35;;;6.70;99.90;;;;;;6256340;23;20058;-80
2022/11/13 04:16:53;;;;;;;142.45;52.17;;;6.70;99.90;;;;;;6253439;23;20101;-79
2022/11/13 04:19:37;;;;;;;133.27;53.05;;;6.70;99.90;;;;;;6266350;23;20076;-79
2022/11/13 04:22:21;;;;;;;159.50;53.30;;;6.80;99.90;;;;;;6263983;23;20040;-79
2022/11/13 04:25:06;;;;;;;152.27;55.50;;;6.80;99.90;;;;;;6261857;23;20069;-80
2022/11/13 04:27:52;;;;;;;137.85;53.08;;;6.80;99.90;;;;;;6254974;23;20050;-80
2022/11/13 04:30:36;;;;;;;161.43;55.42;;;6.80;99.90;;;;;;6241936;23;20130;-80
2022/11/13 04:33:21;;;;;;;;;;;6.80;99.90;;;;;;6264845;23;20027;-78
2022/11/13 04:36:06;;;;;;;167.10;53.50;;;6.90;99.90;;;;;;6265972;23;19930;-79
2022/11/13 04:38:50;;;;;;;123.40;52.92;;;6.90;99.90;;;;;;6258144;23;20086;-80
2022/11/13 04:44:37;;;;;;;130.95;52.65;;;6.90;99.90;;;;;;6260106;23;20019;-80
2022/11/13 04:47:21;;;;;;;175.48;54.40;;;6.80;99.90;;;;;;6255701;23;20019;-80
2022/11/13 04:50:06;;;;;;;172.82;52.35;;;6.90;99.90;;;;;;6254888;23;20058;-78
2022/11/13 04:52:51;;;;;;;136.77;53.65;;;6.80;99.90;;;;;;6237150;23;20057;-79
2022/11/13 04:55:35;;;;;;;137.82;52.67;;;6.80;99.90;;;;;;6260422;23;20018;-79
2022/11/13 04:58:19;;;;;;;178.65;54.78;;;6.80;99.90;;;;;;6261636;23;20078;-80
2022/11/13 05:01:03;;;;;;;130.10;52.28;;;6.80;99.90;;;;;;6257840;23;20019;-78
2022/11/13 05:03:48;;;;;;;135.98;54.67;;;6.80;99.90;;;;;;6258387;23;20099;-79
2022/11/13 05:06:33;;;;;;;136.23;56.10;;;6.80;99.90;;;;;;6274717;22;20015;-79
2022/11/13 05:09:17;;;;;;;147.05;54.63;;;6.80;99.90;;;;;;6274476;22;20015;-80
2022/11/13 05:12:06;;;;;;;143.48;53.63;;;6.90;99.90;;;;;;6275022;22;20026;-80
2022/11/13 05:14:51;;;;;;;145.48;54.65;;;6.90;99.90;;;;;;6273815;22;20026;-80
2022/11/13 05:17:35;;;;;;;146.93;52.00;;;6.90;99.90;;;;;;6271947;22;20065;-80
2022/11/13 05:20:20;;;;;;;152.50;52.75;;;6.80;99.90;;;;;;6264705;23;20023;-79
2022/11/13 05:23:05;;;;;;;169.45;58.50;;;6.80;99.90;;;;;;6240448;23;20027;-80
2022/11/13 05:25:49;;;;;;;190.02;56.80;;;6.80;99.90;;;;;;6266578;23;20054;-79
2022/11/13 05:28:35;;;;;;;168.07;58.00;;;6.70;99.90;;;;;;6265744;23;20064;-78
2022/11/13 05:31:19;;;;;;;;;;;6.70;99.90;;;;;;6262604;23;20319;-79
2022/11/13 05:34:04;;;;;;;161.35;54.95;;;6.70;99.90;;;;;;6258879;23;20273;-80
2022/11/13 05:36:49;;;;;;;182.88;59.80;;;6.70;99.90;;;;;;6255590;23;20023;-80
2022/11/13 05:39:33;;;;;;;147.25;57.90;;;6.70;99.90;;;;;;6263038;22;20062;-80
2022/11/13 05:42:17;;;;;;;143.15;55.95;;;6.70;99.90;;;;;;6274911;22;20031;-81
2022/11/13 05:45:02;;;;;;;144.98;55.45;;;6.70;99.90;;;;;;6267170;22;20673;-79
2022/11/13 05:47:46;;;;;;;133.40;52.25;;;6.60;99.90;;;;;;6261260;23;20043;-80
2022/11/13 05:50:31;;;;;;;147.30;53.38;;;6.60;99.90;;;;;;6256682;23;20103;-79
2022/11/13 05:53:15;;;;;;;142.90;54.45;;;6.60;99.90;;;;;;6259599;23;20019;-78
2022/11/13 05:56:03;;;;;;;203.88;52.22;;;6.60;99.90;;;;;;6259295;23;20030;-78
2022/11/13 05:58:47;;;;;;;177.48;51.85;;;6.60;99.90;;;;;;6253440;23;20091;-79
2022/11/13 06:01:33;;;;;;;;;;;6.40;99.90;;;;;;6237682;23;20095;-81
2022/11/13 06:04:17;;;;;;;145.93;49.13;;;6.40;99.90;;;;;;6239733;23;19919;-79
2022/11/13 06:07:01;;;;;;;125.07;50.03;;;6.30;99.90;;;;;;6262087;23;20022;-80
2022/11/13 06:09:46;;;;;;;126.03;50.00;;;6.40;99.90;;;;;;6236629;23;20023;-80
2022/11/13 06:12:30;;;;;;;133.75;49.72;;;6.40;99.90;;;;;;6263191;23;20043;-80
2022/11/13 06:15:15;;;;;;;113.70;49.13;;;6.30;99.90;;;;;;6261414;23;20022;-79
2022/11/13 06:18:00;;;;;;;154.38;49.75;;;6.30;99.90;;;;;;6256240;23;20446;-80
2022/11/13 06:20:44;;;;;;;127.15;49.45;;;6.30;99.90;;;;;;6232336;23;20023;-80
2022/11/13 06:23:28;;;;;;;118.70;50.33;;;6.30;99.90;;;;;;6255437;23;20023;-79
2022/11/13 06:26:18;;;;;;;133.70;50.53;;;6.30;99.90;;;;;;6237837;23;20042;-81
2022/11/13 06:29:05;;;;;;;120.85;49.80;;;6.30;99.90;;;;;;6255224;23;20042;-80
2022/11/13 06:31:51;;;;;;;153.25;49.38;;;6.30;99.90;;;;;;6257496;23;20020;-80
2022/11/13 06:34:35;;;;;;;106.15;45.22;;;6.20;99.90;;;;;;6237717;23;20027;-81
2022/11/13 06:37:20;;;;;;;129.93;49.07;;;6.30;99.90;;;;;;6263364;23;20023;-80
2022/11/13 06:40:04;;;;;;;118.28;47.08;;;6.30;99.90;;;;;;6257126;23;20067;-79
2022/11/13 06:42:49;;;;;;;103.88;45.50;;;6.30;99.90;;;;;;6256498;23;20062;-80
2022/11/13 06:45:34;;;;;;;190.98;45.80;;;6.30;99.90;;;;;;6256661;23;20022;-82
2022/11/13 06:48:18;;;;;;;;;;;6.20;99.90;;;;;;6234701;23;20730;-80
2022/11/13 06:51:04;;;;;;;113.75;44.15;;;6.30;99.90;;;;;;6266388;23;19911;-79
2022/11/13 06:53:49;;;;;;;117.43;43.97;;;6.20;99.90;;;;;;6261543;23;20020;-81
2022/11/13 06:56:33;;;;;;;140.45;45.58;;;6.20;99.90;;;;;;6258321;23;20074;-81
2022/11/13 06:59:18;;;;;;;109.82;44.55;;;6.20;99.90;;;;;;6262348;23;20023;-80
2022/11/13 07:02:03;;;;;;;;;;;6.20;99.90;;;;;;6239989;23;20042;-79
2022/11/13 07:04:47;;;;;;;134.30;44.03;;;6.10;99.90;;;;;;6261735;23;19913;-80
2022/11/13 07:07:32;;;;;;;105.43;45.05;;;6.20;99.90;;;;;;6263156;23;20074;-80
2022/11/13 07:10:17;;;;;;;129.77;45.47;;;6.20;99.90;;;;;;6264858;23;20039;-80
2022/11/13 07:13:01;;;;;;;116.43;44.70;;;6.20;99.90;;;;;;6266813;23;20027;-79
2022/11/13 07:15:46;;;;;;;140.55;46.08;;;6.30;99.90;;;;;;6240929;23;20325;-79
2022/11/13 07:18:33;;;;;;;103.65;42.22;;;6.30;99.90;;;;;;6261678;23;20020;-78
2022/11/13 07:21:18;;;;;;;100.93;43.13;;;6.30;99.90;;;;;;6239332;23;20019;-79
2022/11/13 07:24:03;;;;;;;99.25;41.55;;;6.30;99.90;;;;;;6262097;23;20022;-80
2022/11/13 07:26:47;;;;;;;92.95;41.55;;;6.40;99.90;;;;;;6262492;23;20046;-79
2022/11/13 07:29:32;;;;;;;94.10;40.58;;;6.40;99.90;;;;;;6239353;23;20015;-80
2022/11/13 07:32:17;;;;;;;97.38;40.03;;;6.40;99.90;;;;;;6263828;23;20007;-80
2022/11/13 07:35:01;;;;;;;137.48;40.38;;;6.40;99.90;;;;;;6264253;23;20031;-80
2022/11/13 07:37:46;;;;;;;96.50;40.25;;;6.40;99.90;;;;;;6262923;23;20113;-81
2022/11/13 07:40:31;;;;;;;85.85;39.15;;;6.50;99.90;;;;;;6243098;23;20026;-81
2022/11/13 07:43:15;;;;;;;87.95;37.78;;;6.50;99.90;;;;;;6243275;23;20023;-81
2022/11/13 07:46:00;;;;;;;92.93;36.72;;;6.60;99.90;;;;;;6262394;23;20011;-80
2022/11/13 07:48:44;;;;;;;86.00;36.78;;;6.60;99.90;;;;;;6263355;23;20030;-80
2022/11/13 07:51:28;;;;;;;86.15;37.72;;;6.60;99.90;;;;;;6263859;23;20070;-80
2022/11/13 07:54:13;;;;;;;82.57;38.50;;;6.60;99.90;;;;;;6241165;23;20027;-81
2022/11/13 07:56:57;;;;;;;107.18;39.20;;;6.60;99.90;;;;;;6261116;23;20258;-80
2022/11/13 07:59:42;;;;;;;113.65;38.55;;;6.60;99.90;;;;;;6262542;23;20027;-81
2022/11/13 08:02:26;;;;;;;102.68;39.25;;;6.60;99.90;;;;;;6265394;23;20027;-80
2022/11/13 08:05:11;;;;;;;84.75;38.85;;;6.60;99.90;;;;;;6266967;23;20023;-79
2022/11/13 08:07:59;;;;;;;99.30;36.88;;;6.70;99.90;;;;;;6246606;23;20018;-81
2022/11/13 08:10:43;;;;;;;87.18;38.53;;;6.70;99.90;;;;;;6264938;23;20034;-81
2022/11/13 08:13:28;;;;;;;102.13;40.35;;;6.80;99.90;;;;;;6272202;23;20047;-80
2022/11/13 08:16:12;;;;;;;89.32;40.13;;;6.80;99.90;;;;;;6249070;23;20079;-83
2022/11/13 08:18:57;;;;;;;88.25;39.72;;;6.90;99.90;;;;;;6272078;23;20022;-80
2022/11/13 08:21:41;;;;;;;99.32;41.50;;;6.90;99.90;;;;;;6272219;23;20072;-80
2022/11/13 08:24:25;;;;;;;99.25;43.65;;;6.90;99.90;;;;;;6266448;23;20078;-79
2022/11/13 08:27:10;;;;;;;109.70;45.67;;;6.90;99.90;;;;;;6262286;23;20018;-79
2022/11/13 08:29:55;;;;;;;107.80;44.33;;;7.00;99.90;;;;;;6243439;23;20019;-79
2022/11/13 08:32:43;;;;;;;117.00;46.80;;;7.00;99.90;;;;;;6242206;23;20139;-79
2022/11/13 08:35:27;;;;;;;107.43;45.70;;;7.00;99.90;;;;;;6259528;23;20022;-83
2022/11/13 08:38:13;;;;;;;94.85;42.75;;;7.00;99.90;;;;;;6256217;23;20022;-81
2022/11/13 08:40:59;;;;;;;98.15;43.30;;;7.10;99.90;;;;;;6264133;23;20038;-81
2022/11/13 08:43:44;;;;;;;90.05;39.17;;;7.20;99.90;;;;;;6270520;23;20026;-79
2022/11/13 08:46:29;;;;;;;88.05;42.42;;;7.30;99.90;;;;;;6271816;23;20047;-79
2022/11/13 08:49:13;;;;;;;84.20;39.08;;;7.50;99.90;;;;;;6267465;23;20035;-80
2022/11/13 08:51:58;;;;;;;83.22;38.53;;;7.60;99.90;;;;;;6267660;23;20068;-79
2022/11/13 08:54:43;;;;;;;84.38;38.35;;;7.60;99.90;;;;;;6263704;23;20019;-82
2022/11/13 08:57:27;;;;;;;80.72;37.72;;;7.70;99.90;;;;;;6255525;23;20026;-81
2022/11/13 09:00:12;;;;;;;89.90;39.28;;;7.70;99.90;;;;;;6253336;23;20089;-80
2022/11/13 09:02:58;;;;;;;83.93;39.53;;;7.70;99.90;;;;;;6254108;23;20074;-80
2022/11/13 09:05:42;;;;;;;89.45;39.97;;;7.80;99.90;;;;;;6256820;23;20023;-80
2022/11/13 09:08:29;;;;;;;78.68;38.47;;;8.00;99.90;;;;;;6255643;23;20019;-81
2022/11/13 09:11:14;;;;;;;85.72;38.28;;;7.90;99.90;;;;;;6231586;23;20019;-81
2022/11/13 09:13:59;;;;;;;89.28;41.67;;;8.00;99.90;;;;;;6264474;23;20065;-81
2022/11/13 09:16:43;;;;;;;;;;;8.00;99.90;;;;;;6259625;23;20069;-83
2022/11/13 09:19:28;;;;;;;78.68;36.08;;;8.20;99.90;;;;;;6233749;23;19910;-80
2022/11/13 09:22:12;;;;;;;80.82;35.92;;;8.20;99.90;;;;;;6232785;23;20047;-78
2022/11/13 09:24:57;;;;;;;73.80;36.45;;;8.40;99.90;;;;;;6268915;23;20019;-78
2022/11/13 09:27:50;;;;;;;80.05;36.85;;;8.50;99.90;;;;;;6269185;23;20019;-77
2022/11/13 09:30:37;;;;;;;78.13;35.60;;;8.50;99.90;;;;;;6267013;23;20105;-79
2022/11/13 09:33:22;;;;;;;82.47;37.38;;;8.50;99.90;;;;;;6267625;23;20071;-79
2022/11/13 09:36:14;;;;;;;79.47;37.03;;;8.60;99.90;;;;;;6268373;23;20026;-78
2022/11/13 09:38:59;;;;;;;74.75;36.10;;;8.70;99.90;;;;;;6265037;23;20023;-77
2022/11/13 09:41:56;;;;;;;73.68;35.90;;;9.00;99.90;;;;;;6267094;23;20019;-78
2022/11/13 09:44:53;;;;;;;75.60;35.38;;;9.10;99.90;;;;;;6267974;23;20079;-77
2022/11/13 09:47:42;;;;;;;66.65;34.13;;;9.20;99.90;;;;;;6267485;23;20023;-77
2022/11/13 09:50:29;;;;;;;63.00;33.05;;;9.30;99.90;;;;;;6244866;23;20042;-77
2022/11/13 09:53:15;;;;;;;69.90;35.17;;;9.30;99.90;;;;;;6269382;23;20019;-81
2022/11/13 09:56:05;;;;;;;66.13;33.90;;;9.40;99.90;;;;;;6270004;23;20016;-78
2022/11/13 09:59:01;;;;;;;58.67;33.28;;;9.50;99.90;;;;;;6270353;23;20090;-77
2022/11/13 10:02:08;;;;;;;66.53;34.10;;;9.60;99.90;;;;;;6249012;23;20039;-78
2022/11/13 10:05:05;;;;;;;65.85;33.47;;;9.70;99.90;;;;;;6266350;23;20022;-79
2022/11/13 10:08:00;;;;;;;59.63;30.52;;;9.90;99.90;;;;;;6262337;23;20027;-80
2022/11/13 10:10:50;;;;;;;54.10;30.08;;;10.50;99.90;;;;;;6265102;23;20061;-79
2022/11/13 10:13:47;;;;;;;53.25;28.30;;;11.70;99.90;;;;;;6262311;23;20537;-80
2022/11/13 10:16:40;;;;;;;50.53;28.02;;;12.70;99.90;;;;;;6259393;23;20026;-79
2022/11/13 10:19:33;;;;;;;48.17;26.40;;;14.10;99.90;;;;;;6256039;23;20065;-78
2022/11/13 10:22:48;;;;;;;48.40;26.77;;;14.70;99.90;;;;;;6266306;23;20092;-78
2022/11/13 10:25:35;;;;;;;44.42;24.38;;;15.30;99.90;;;;;;6264545;23;20027;-78
2022/11/13 10:28:22;;;;;;;42.55;23.65;;;16.00;99.90;;;;;;6259809;23;20019;-78
2022/11/13 10:31:10;;;;;;;46.70;25.15;;;16.30;99.90;;;;;;6259844;23;20062;-79
2022/11/13 10:33:56;;;;;;;38.58;23.80;;;16.60;99.90;;;;;;6254139;23;20074;-80
2022/11/13 10:37:15;;;;;;;36.65;23.73;;;16.90;99.90;;;;;;6254836;23;20066;-80
2022/11/13 10:40:00;;;;;;;39.50;22.98;;;17.00;99.90;;;;;;6250930;23;20070;-80
2022/11/13 10:42:44;;;;;;;33.05;21.95;;;17.10;99.90;;;;;;6230802;23;20023;-80
2022/11/13 10:45:28;;;;;;;32.08;20.65;;;17.20;99.90;;;;;;6237596;23;20042;-79
2022/11/13 10:48:28;;;;;;;33.47;20.25;;;17.50;99.90;;;;;;6256106;23;20144;-80
2022/11/13 10:51:24;;;;;;;33.72;20.27;;;18.00;99.90;;;;;;6254222;23;20015;-80
2022/11/13 10:54:23;;;;;;;30.45;19.38;;;18.70;99.90;;;;;;6238840;23;20345;-80
2022/11/13 10:57:33;;;;;;;30.45;18.42;;;19.40;99.90;;;;;;6232783;23;20019;-79
2022/11/13 11:00:38;;;;;;;31.75;20.67;;;19.90;99.90;;;;;;6253449;23;20022;-79
2022/11/13 11:03:24;;;;;;;28.40;18.10;;;20.00;98.90;;;;;;6256674;23;20027;-79
2022/11/13 11:06:09;;;;;;;28.52;19.13;;;20.80;98.00;;;;;;6257964;23;20119;-80
2022/11/13 11:09:05;;;;;;;28.13;18.17;;;21.30;96.50;;;;;;6263181;23;20049;-81
2022/11/13 11:12:18;;;;;;;25.40;16.52;;;22.00;95.00;;;;;;6267327;23;20015;-80
2022/11/13 11:15:14;;;;;;;24.85;16.27;;;23.00;93.60;;;;;;6235805;23;20072;-81
2022/11/13 11:18:04;;;;;;;25.00;16.10;;;23.90;91.30;;;;;;6253799;23;20023;-80
2022/11/13 11:21:00;;;;;;;23.75;15.57;;;23.60;90.50;;;;;;6257090;23;20024;-80
2022/11/13 11:23:57;;;;;;;23.88;15.48;;;23.10;90.60;;;;;;6256342;23;20069;-80
2022/11/13 11:27:22;;;;;;;24.90;16.48;;;23.40;90.30;;;;;;6255420;23;20039;-80
2022/11/13 11:30:22;;;;;;;23.67;15.73;;;23.80;88.30;;;;;;6102619;23;20053;-81
2022/11/13 11:33:56;;;;;;;31.15;17.85;;;23.70;88.00;;;;;;6263905;23;20038;-81
2022/11/13 11:37:12;;;;;;;21.80;15.05;;;23.10;88.00;;;;;;6203860;23;20038;-79
2022/11/13 11:39:59;;;;;;;28.00;16.95;;;22.20;89.60;;;;;;6246577;22;20016;-79
2022/11/13 11:43:23;;;;;;;27.42;16.95;;;21.40;90.50;;;;;;6250065;23;20019;-80
2022/11/13 11:46:20;;;;;;;28.58;17.58;;;20.20;92.00;;;;;;6256413;23;20100;-78
2022/11/13 11:49:07;;;;;;;24.90;15.95;;;18.90;94.00;;;;;;6261917;23;20020;-79
2022/11/13 11:52:12;;;;;;;26.33;16.75;;;17.80;95.90;;;;;;6262922;23;20024;-79
2022/11/13 11:55:24;;;;;;;33.47;20.27;;;17.10;98.10;;;;;;6268857;23;20066;-79
2022/11/13 11:58:46;;;;;;;34.58;21.45;;;16.10;99.90;;;;;;6267906;23;20038;-79
2022/11/13 12:02:04;;;;;;;31.58;19.85;;;14.90;99.90;;;;;;6268884;23;20042;-78
2022/11/13 12:05:14;;;;;;;29.30;18.20;;;14.40;99.90;;;;;;6260745;23;20023;-79
2022/11/13 12:08:34;;;;;;;34.60;19.08;;;14.00;99.90;;;;;;6257234;23;20091;-80
2022/11/13 12:11:54;;;;;;;33.72;19.58;;;13.60;99.90;;;;;;6255012;23;20020;-78
2022/11/13 12:15:03;;;;;;;35.42;19.23;;;13.00;99.90;;;;;;6257526;23;20069;-77
2022/11/13 12:18:00;;;;;;;39.45;20.73;;;12.90;99.90;;;;;;6263080;23;20065;-81
2022/11/13 12:21:26;;;;;;;38.78;20.25;;;12.70;99.90;;;;;;6230199;23;20022;-79
2022/11/13 12:24:45;;;;;;;36.83;20.88;;;12.50;99.90;;;;;;6229532;23;20093;-78
2022/11/13 12:27:46;;;;;;;42.17;22.80;;;12.40;99.90;;;;;;6253142;23;20019;-80
2022/11/13 12:30:33;;;;;;;39.65;21.70;;;12.20;99.90;;;;;;6255775;23;20019;-79
2022/11/13 12:33:36;;;;;;;42.63;23.13;;;12.10;99.90;;;;;;6250800;23;20016;-81
2022/11/13 12:36:22;;;;;;;40.63;23.33;;;12.10;99.90;;;;;;6254788;23;20007;-80
2022/11/13 12:39:38;;;;;;;45.30;23.55;;;12.00;99.90;;;;;;6250814;23;20019;-80
2022/11/13 12:42:33;;;;;;;45.28;25.35;;;12.10;99.90;;;;;;6255675;23;20023;-81
2022/11/13 12:45:29;;;;;;;42.50;22.63;;;12.00;99.90;;;;;;6237454;23;20106;-80
2022/11/13 12:48:17;;;;;;;39.92;21.80;;;11.90;99.90;;;;;;6240682;23;20015;-78
2022/11/13 12:51:04;;;;;;;39.92;22.52;;;11.90;99.90;;;;;;6266338;23;20019;-80
2022/11/13 12:53:50;;;;;;;39.65;20.75;;;11.80;99.90;;;;;;6237363;23;20430;-80
2022/11/13 12:56:35;;;;;;;38.25;21.50;;;11.80;99.90;;;;;;6259025;23;20034;-81
2022/11/13 12:59:21;;;;;;;35.20;20.90;;;11.80;99.90;;;;;;6253803;23;20131;-80
2022/11/13 13:02:08;;;;;;;39.45;21.25;;;11.80;99.90;;;;;;6234320;23;20023;-79
2022/11/13 13:05:01;;;;;;;39.15;21.73;;;11.90;99.90;;;;;;6252880;23;20019;-80
2022/11/13 13:07:55;;;;;;;39.53;22.13;;;11.80;99.90;;;;;;6254020;23;20039;-79
2022/11/13 13:11:04;;;;;;;41.05;21.98;;;11.70;99.90;;;;;;6252494;23;20031;-78
2022/11/13 13:14:20;;;;;;;40.97;22.08;;;11.70;99.90;;;;;;6235216;23;20047;-80
2022/11/13 13:17:13;;;;;;;43.80;25.08;;;11.70;99.90;;;;;;6191395;23;20018;-80
2022/11/13 13:20:00;;;;;;;45.83;24.00;;;11.60;99.90;;;;;;6234251;23;20019;-81
2022/11/13 13:22:54;;;;;;;38.63;23.17;;;11.50;99.90;;;;;;6264741;23;20073;-79
2022/11/13 13:25:40;;;;;;;44.63;25.00;;;11.30;99.90;;;;;;6256223;23;20047;-80
2022/11/13 13:28:24;;;;;;;49.95;25.58;;;11.20;99.90;;;;;;6252860;23;20019;-81
2022/11/13 13:31:11;;;;;;;66.50;25.33;;;11.20;99.90;;;;;;6258874;23;20039;-81
2022/11/13 13:34:23;;;;;;;47.63;25.17;;;11.10;99.90;;;;;;6261172;23;20023;-82
2022/11/13 13:37:34;;;;;;;55.75;25.95;;;11.00;99.90;;;;;;6252569;23;20023;-81
2022/11/13 13:40:50;;;;;;;48.88;25.65;;;11.00;99.90;;;;;;6251294;23;20103;-83
2022/11/13 13:43:51;;;;;;;49.10;26.85;;;10.90;99.90;;;;;;6216536;23;20023;-82
2022/11/13 13:46:36;;;;;;;52.80;27.10;;;10.90;99.90;;;;;;6257001;22;20065;-87
2022/11/13 13:49:23;;;;;;;51.90;27.17;;;10.80;99.90;;;;;;6275028;22;20015;-88
2022/11/13 13:54:55;;;;;;;56.00;29.30;;;10.80;99.90;;;;;;6185826;23;20011;-88
2022/11/13 13:57:41;;;;;;;52.03;27.63;;;10.70;99.90;;;;;;6133607;23;20033;-92
2022/11/13 14:00:27;;;;;;;59.50;29.58;;;10.70;99.90;;;;;;6154409;23;20037;-92
2022/11/13 14:03:21;;;;;;;54.45;27.55;;;10.60;99.90;;;;;;6154722;23;20016;-91
2022/11/13 14:06:20;;;;;;;52.42;27.50;;;10.60;99.90;;;;;;6153422;23;20045;-91
2022/11/13 14:09:10;;;;;;;50.33;26.95;;;10.60;99.90;;;;;;6153818;23;20010;-92
2022/11/13 14:12:00;;;;;;;56.78;28.98;;;10.50;99.90;;;;;;6153897;23;20032;-92
2022/11/13 14:14:44;;;;;;;58.72;29.23;;;10.50;99.90;;;;;;6153868;23;20008;-91
2022/11/13 14:17:31;;;;;;;52.00;28.60;;;10.40;99.90;;;;;;6154088;23;20037;-92
2022/11/13 14:20:19;;;;;;;53.97;28.98;;;10.40;99.90;;;;;;6190206;22;20084;-91
2022/11/13 14:23:04;;;;;;;57.63;29.67;;;10.40;99.90;;;;;;6213980;23;20047;-90
2022/11/13 14:25:51;;;;;;;54.40;30.10;;;10.30;99.90;;;;;;6214304;23;20098;-91
2022/11/13 14:29:14;;;;;;;55.70;29.48;;;10.20;99.90;;;;;;6213501;23;20020;-92
2022/11/13 14:32:10;;;;;;;60.22;30.20;;;10.20;99.90;;;;;;6211323;23;20069;-92